sensor_id;sensor_type;location;lat;lon;timestamp;pressure;altitude;pressure_sealevel;temperature;humidity
76404;BME280;65232;48.358;2.122;2023-02-03T00:00:12;102741.19;;;7.95;76.45
76404;BME280;65232;48.358;2.122;2023-02-03T00:00:37;102744.72;;;7.95;76.54
76404;BME280;65232;48.358;2.122;2023-02-03T00:01:03;102740.31;;;7.94;76.38
76404;BME280;65232;48.358;2.122;2023-02-03T00:01:28;102740.31;;;7.94;76.46
76404;BME280;65232;48.358;2.122;2023-02-03T00:01:54;102746.53;;;7.95;76.58
76404;BME280;65232;48.358;2.122;2023-02-03T00:02:19;102742.94;;;7.96;76.34
76404;BME280;65232;48.358;2.122;2023-02-03T00:02:44;102744.72;;;7.95;76.49
76404;BME280;65232;48.358;2.122;2023-02-03T00:03:10;102744.78;;;7.94;76.36
76404;BME280;65232;48.358;2.122;2023-02-03T00:03:35;102741.19;;;7.95;76.49
76404;BME280;65232;48.358;2.122;2023-02-03T00:04:01;102748.22;;;7.97;76.42
76404;BME280;65232;48.358;2.122;2023-02-03T00:04:26;102744.69;;;7.97;76.33
76404;BME280;65232;48.358;2.122;2023-02-03T00:04:52;102746.41;;;7.98;76.27
76404;BME280;65232;48.358;2.122;2023-02-03T00:05:17;102739.94;;;8.03;76.34
76404;BME280;65232;48.358;2.122;2023-02-03T00:05:43;102740.69;;;8.07;75.82
76404;BME280;65232;48.358;2.122;2023-02-03T00:06:08;102743.41;;;8.05;75.58
76404;BME280;65232;48.358;2.122;2023-02-03T00:06:34;102737.97;;;8.08;75.77
76404;BME280;65232;48.358;2.122;2023-02-03T00:07:00;102734.50;;;8.06;75.76
76404;BME280;65232;48.358;2.122;2023-02-03T00:07:26;102742.44;;;8.08;75.43
76404;BME280;65232;48.358;2.122;2023-02-03T00:07:52;102742.56;;;8.05;75.62
76404;BME280;65232;48.358;2.122;2023-02-03T00:08:18;102743.47;;;8.04;75.85
76404;BME280;65232;48.358;2.122;2023-02-03T00:08:44;102745.28;;;8.03;75.50
76404;BME280;65232;48.358;2.122;2023-02-03T00:09:09;102744.34;;;8.04;75.43
76404;BME280;65232;48.358;2.122;2023-02-03T00:09:35;102743.63;;;8.01;75.61
76404;BME280;65232;48.358;2.122;2023-02-03T00:10:01;102745.53;;;7.97;75.73
76404;BME280;65232;48.358;2.122;2023-02-03T00:10:27;102739.34;;;7.97;76.01
76404;BME280;65232;48.358;2.122;2023-02-03T00:10:53;102736.75;;;7.95;75.83
76404;BME280;65232;48.358;2.122;2023-02-03T00:11:19;102742.06;;;7.95;75.63
76404;BME280;65232;48.358;2.122;2023-02-03T00:11:44;102742.06;;;7.95;75.78
76404;BME280;65232;48.358;2.122;2023-02-03T00:12:10;102745.47;;;7.99;75.82
76404;BME280;65232;48.358;2.122;2023-02-03T00:12:35;102739.22;;;8.00;75.82
76404;BME280;65232;48.358;2.122;2023-02-03T00:13:01;102742.75;;;8.00;75.90
76404;BME280;65232;48.358;2.122;2023-02-03T00:13:27;102737.44;;;8.00;75.90
76404;BME280;65232;48.358;2.122;2023-02-03T00:13:53;102732.00;;;8.02;75.79
76404;BME280;65232;48.358;2.122;2023-02-03T00:14:18;102737.44;;;8.00;75.94
76404;BME280;65232;48.358;2.122;2023-02-03T00:14:44;102728.41;;;8.03;75.42
76404;BME280;65232;48.358;2.122;2023-02-03T00:15:09;102729.34;;;8.02;75.81
76404;BME280;65232;48.358;2.122;2023-02-03T00:15:35;102730.31;;;8.01;75.40
76404;BME280;65232;48.358;2.122;2023-02-03T00:16:00;102744.56;;;8.00;75.75
76404;BME280;65232;48.358;2.122;2023-02-03T00:16:26;102732.09;;;8.00;75.69
76404;BME280;65232;48.358;2.122;2023-02-03T00:16:51;102743.53;;;8.02;75.71
76404;BME280;65232;48.358;2.122;2023-02-03T00:17:17;102735.25;;;8.10;75.76
76404;BME280;65232;48.358;2.122;2023-02-03T00:17:47;102727.34;;;8.07;75.23
76404;BME280;65232;48.358;2.122;2023-02-03T00:18:14;102732.63;;;8.08;75.08
76404;BME280;65232;48.358;2.122;2023-02-03T00:18:39;102733.56;;;8.07;75.27
76404;BME280;65232;48.358;2.122;2023-02-03T00:19:04;102741.50;;;8.09;75.10
76404;BME280;65232;48.358;2.122;2023-02-03T00:19:30;102741.56;;;8.07;75.26
76404;BME280;65232;48.358;2.122;2023-02-03T00:19:56;102736.34;;;8.04;75.31
76404;BME280;65232;48.358;2.122;2023-02-03T00:20:21;102740.09;;;8.00;75.14
76404;BME280;65232;48.358;2.122;2023-02-03T00:20:47;102738.41;;;7.98;75.58
76404;BME280;65232;48.358;2.122;2023-02-03T00:21:12;102736.78;;;7.94;75.51
76404;BME280;65232;48.358;2.122;2023-02-03T00:21:43;102738.59;;;7.93;75.73
76404;BME280;65232;48.358;2.122;2023-02-03T00:22:08;102738.81;;;7.87;76.04
76404;BME280;65232;48.358;2.122;2023-02-03T00:22:34;102742.31;;;7.89;76.10
76404;BME280;65232;48.358;2.122;2023-02-03T00:23:07;102749.31;;;7.92;75.79
76404;BME280;65232;48.358;2.122;2023-02-03T00:23:33;102746.66;;;7.92;76.00
76404;BME280;65232;48.358;2.122;2023-02-03T00:23:58;102756.31;;;7.94;75.69
76404;BME280;65232;48.358;2.122;2023-02-03T00:24:24;102744.78;;;7.94;75.94
76404;BME280;65232;48.358;2.122;2023-02-03T00:24:50;102746.59;;;7.93;75.74
76404;BME280;65232;48.358;2.122;2023-02-03T00:25:15;102748.38;;;7.93;75.82
76404;BME280;65232;48.358;2.122;2023-02-03T00:25:41;102743.06;;;7.93;75.84
76404;BME280;65232;48.358;2.122;2023-02-03T00:26:08;102743.00;;;7.94;75.94
76404;BME280;65232;48.358;2.122;2023-02-03T00:26:34;102746.53;;;7.95;75.88
76404;BME280;65232;48.358;2.122;2023-02-03T00:27:00;102742.13;;;7.94;75.84
76404;BME280;65232;48.358;2.122;2023-02-03T00:27:26;102743.16;;;7.90;76.05
76404;BME280;65232;48.358;2.122;2023-02-03T00:27:51;102745.72;;;7.93;76.05
76404;BME280;65232;48.358;2.122;2023-02-03T00:28:17;102746.41;;;7.98;75.87
76404;BME280;65232;48.358;2.122;2023-02-03T00:28:43;102744.72;;;7.95;75.73
76404;BME280;65232;48.358;2.122;2023-02-03T00:29:09;102741.13;;;7.96;75.64
76404;BME280;65232;48.358;2.122;2023-02-03T00:29:35;102740.09;;;8.00;75.60
76404;BME280;65232;48.358;2.122;2023-02-03T00:30:01;102742.81;;;7.99;75.52
76404;BME280;65232;48.358;2.122;2023-02-03T00:30:27;102742.75;;;8.00;75.53
76404;BME280;65232;48.358;2.122;2023-02-03T00:30:53;102745.34;;;8.02;75.55
76404;BME280;65232;48.358;2.122;2023-02-03T00:31:21;102734.59;;;8.03;75.45
76404;BME280;65232;48.358;2.122;2023-02-03T00:31:46;102737.50;;;7.99;75.22
76404;BME280;65232;48.358;2.122;2023-02-03T00:32:12;102740.22;;;7.97;75.62
76404;BME280;65232;48.358;2.122;2023-02-03T00:32:38;102742.06;;;7.95;75.37
76404;BME280;65232;48.358;2.122;2023-02-03T00:33:03;102739.28;;;7.98;75.44
76404;BME280;65232;48.358;2.122;2023-02-03T00:33:29;102739.00;;;8.04;75.28
76404;BME280;65232;48.358;2.122;2023-02-03T00:33:56;102735.41;;;8.05;75.07
76404;BME280;65232;48.358;2.122;2023-02-03T00:34:25;102733.50;;;8.09;75.08
76404;BME280;65232;48.358;2.122;2023-02-03T00:34:51;102738.16;;;8.04;74.97
76404;BME280;65232;48.358;2.122;2023-02-03T00:35:17;102738.16;;;8.04;74.96
76404;BME280;65232;48.358;2.122;2023-02-03T00:35:42;102732.75;;;8.05;75.07
76404;BME280;65232;48.358;2.122;2023-02-03T00:36:08;102731.06;;;8.03;75.00
76404;BME280;65232;48.358;2.122;2023-02-03T00:36:35;102732.09;;;8.00;75.40
76404;BME280;65232;48.358;2.122;2023-02-03T00:37:00;102737.50;;;7.99;75.16
76404;BME280;65232;48.358;2.122;2023-02-03T00:37:26;102733.75;;;8.03;75.24
76404;BME280;65232;48.358;2.122;2023-02-03T00:37:55;102733.75;;;8.03;75.18
76404;BME280;65232;48.358;2.122;2023-02-03T00:38:21;102734.59;;;8.03;75.15
76404;BME280;65232;48.358;2.122;2023-02-03T00:38:49;102732.00;;;8.02;75.08
76404;BME280;65232;48.358;2.122;2023-02-03T00:39:15;102737.53;;;7.97;75.48
76404;BME280;65232;48.358;2.122;2023-02-03T00:39:40;102737.53;;;7.97;75.34
76404;BME280;65232;48.358;2.122;2023-02-03T00:40:06;102735.88;;;7.95;75.42
76404;BME280;65232;48.358;2.122;2023-02-03T00:40:32;102732.50;;;7.90;75.38
76404;BME280;65232;48.358;2.122;2023-02-03T00:40:57;102735.22;;;7.88;75.69
76404;BME280;65232;48.358;2.122;2023-02-03T00:41:28;102738.78;;;7.89;75.71
76404;BME280;65232;48.358;2.122;2023-02-03T00:41:54;102735.28;;;7.87;75.38
76404;BME280;65232;48.358;2.122;2023-02-03T00:42:21;102743.38;;;7.85;75.65
76404;BME280;65232;48.358;2.122;2023-02-03T00:42:46;102739.09;;;7.81;75.96
76404;BME280;65232;48.358;2.122;2023-02-03T00:43:12;102739.16;;;7.79;76.24
76404;BME280;65232;48.358;2.122;2023-02-03T00:43:37;102740.88;;;7.81;76.17
76404;BME280;65232;48.358;2.122;2023-02-03T00:44:03;102740.03;;;7.80;76.16
76404;BME280;65232;48.358;2.122;2023-02-03T00:44:29;102738.22;;;7.81;76.54
76404;BME280;65232;48.358;2.122;2023-02-03T00:44:54;102738.28;;;7.79;76.25
76404;BME280;65232;48.358;2.122;2023-02-03T00:45:20;102736.50;;;7.79;76.58
76404;BME280;65232;48.358;2.122;2023-02-03T00:45:46;102730.91;;;7.86;76.05
76404;BME280;65232;48.358;2.122;2023-02-03T00:46:12;102739.78;;;7.86;76.00
76404;BME280;65232;48.358;2.122;2023-02-03T00:46:38;102738.91;;;7.86;75.73
76404;BME280;65232;48.358;2.122;2023-02-03T00:47:03;102739.78;;;7.86;75.88
76404;BME280;65232;48.358;2.122;2023-02-03T00:47:29;102733.44;;;7.89;75.57
76404;BME280;65232;48.358;2.122;2023-02-03T00:47:55;102737.13;;;7.86;75.98
76404;BME280;65232;48.358;2.122;2023-02-03T00:48:21;102740.72;;;7.85;75.83
76404;BME280;65232;48.358;2.122;2023-02-03T00:48:46;102738.06;;;7.85;75.55
76404;BME280;65232;48.358;2.122;2023-02-03T00:49:12;102742.44;;;7.86;75.80
76404;BME280;65232;48.358;2.122;2023-02-03T00:49:38;102740.63;;;7.87;75.84
76404;BME280;65232;48.358;2.122;2023-02-03T00:50:05;102738.81;;;7.87;75.79
76404;BME280;65232;48.358;2.122;2023-02-03T00:50:31;102737.97;;;7.87;75.64
76404;BME280;65232;48.358;2.122;2023-02-03T00:50:56;102736.97;;;7.89;75.76
76404;BME280;65232;48.358;2.122;2023-02-03T00:51:24;102739.69;;;7.88;75.37
76404;BME280;65232;48.358;2.122;2023-02-03T00:51:51;102736.25;;;7.86;75.85
76404;BME280;65232;48.358;2.122;2023-02-03T00:52:16;102734.47;;;7.86;75.69
76404;BME280;65232;48.358;2.122;2023-02-03T00:52:42;102728.25;;;7.86;75.56
76404;BME280;65232;48.358;2.122;2023-02-03T00:53:07;102737.13;;;7.86;75.53
76404;BME280;65232;48.358;2.122;2023-02-03T00:53:33;102733.50;;;7.87;75.74
76404;BME280;65232;48.358;2.122;2023-02-03T00:53:59;102731.63;;;7.89;75.42
76404;BME280;65232;48.358;2.122;2023-02-03T00:54:24;102731.28;;;7.98;75.45
76404;BME280;65232;48.358;2.122;2023-02-03T00:54:50;102729.78;;;7.91;75.34
76404;BME280;65232;48.358;2.122;2023-02-03T00:55:15;102735.13;;;7.91;75.14
76404;BME280;65232;48.358;2.122;2023-02-03T00:55:42;102736.91;;;7.91;75.42
76404;BME280;65232;48.358;2.122;2023-02-03T00:56:08;102734.38;;;7.88;75.50
76404;BME280;65232;48.358;2.122;2023-02-03T00:56:36;102736.03;;;7.90;75.38
76404;BME280;65232;48.358;2.122;2023-02-03T00:57:04;102727.19;;;7.90;75.31
76404;BME280;65232;48.358;2.122;2023-02-03T00:57:30;102741.44;;;7.89;75.37
76404;BME280;65232;48.358;2.122;2023-02-03T00:57:56;102729.91;;;7.88;75.46
76404;BME280;65232;48.358;2.122;2023-02-03T00:58:21;102735.22;;;7.88;75.42
76404;BME280;65232;48.358;2.122;2023-02-03T00:58:46;102729.97;;;7.87;75.65
76404;BME280;65232;48.358;2.122;2023-02-03T00:59:12;102736.25;;;7.86;75.53
76404;BME280;65232;48.358;2.122;2023-02-03T00:59:38;102736.31;;;7.84;75.78
76404;BME280;65232;48.358;2.122;2023-02-03T01:00:04;102731.91;;;7.83;75.83
76404;BME280;65232;48.358;2.122;2023-02-03T01:00:31;102732.91;;;7.81;75.87
76404;BME280;65232;48.358;2.122;2023-02-03T01:00:56;102736.50;;;7.79;76.11
76404;BME280;65232;48.358;2.122;2023-02-03T01:01:23;102731.97;;;7.82;75.97
76404;BME280;65232;48.358;2.122;2023-02-03T01:01:49;102736.44;;;7.81;75.84
76404;BME280;65232;48.358;2.122;2023-02-03T01:02:15;102732.84;;;7.82;75.91
76404;BME280;65232;48.358;2.122;2023-02-03T01:02:43;102737.28;;;7.82;75.68
76404;BME280;65232;48.358;2.122;2023-02-03T01:03:09;102740.03;;;7.80;75.85
76404;BME280;65232;48.358;2.122;2023-02-03T01:03:35;102733.50;;;7.87;75.64
76404;BME280;65232;48.358;2.122;2023-02-03T01:04:01;102733.31;;;7.92;75.55
76404;BME280;65232;48.358;2.122;2023-02-03T01:04:26;102734.19;;;7.92;75.48
76404;BME280;65232;48.358;2.122;2023-02-03T01:04:52;102733.38;;;7.90;75.43
76404;BME280;65232;48.358;2.122;2023-02-03T01:05:17;102738.72;;;7.90;75.37
76404;BME280;65232;48.358;2.122;2023-02-03T01:05:43;102738.78;;;7.89;75.46
76404;BME280;65232;48.358;2.122;2023-02-03T01:06:34;102746.03;;;7.85;75.52
76404;BME280;65232;48.358;2.122;2023-02-03T01:06:59;102734.38;;;7.88;75.69
76404;BME280;65232;48.358;2.122;2023-02-03T01:07:25;102741.66;;;7.84;75.49
76404;BME280;65232;48.358;2.122;2023-02-03T01:07:50;102733.72;;;7.83;75.65
76404;BME280;65232;48.358;2.122;2023-02-03T01:08:16;102734.69;;;7.80;75.82
76404;BME280;65232;48.358;2.122;2023-02-03T01:08:42;102741.81;;;7.79;75.97
76404;BME280;65232;48.358;2.122;2023-02-03T01:09:08;102743.56;;;7.81;76.09
76404;BME280;65232;48.358;2.122;2023-02-03T01:09:35;102739.22;;;7.78;76.12
76404;BME280;65232;48.358;2.122;2023-02-03T01:10:00;102737.41;;;7.78;75.80
76404;BME280;65232;48.358;2.122;2023-02-03T01:10:26;102733.00;;;7.77;75.85
76404;BME280;65232;48.358;2.122;2023-02-03T01:10:52;102733.94;;;7.76;76.11
76404;BME280;65232;48.358;2.122;2023-02-03T01:11:20;102736.53;;;7.78;75.90
76404;BME280;65232;48.358;2.122;2023-02-03T01:11:46;102739.16;;;7.79;75.90
76404;BME280;65232;48.358;2.122;2023-02-03T01:12:13;102736.50;;;7.79;75.73
76404;BME280;65232;48.358;2.122;2023-02-03T01:12:39;102738.16;;;7.82;75.60
76404;BME280;65232;48.358;2.122;2023-02-03T01:13:04;102738.22;;;7.81;75.46
76404;BME280;65232;48.358;2.122;2023-02-03T01:13:30;102730.41;;;7.76;75.72
76404;BME280;65232;48.358;2.122;2023-02-03T01:13:55;102742.81;;;7.77;75.73
76404;BME280;65232;48.358;2.122;2023-02-03T01:14:21;102732.13;;;7.77;75.73
76404;BME280;65232;48.358;2.122;2023-02-03T01:14:48;102734.91;;;7.74;75.78
76404;BME280;65232;48.358;2.122;2023-02-03T01:15:15;102731.44;;;7.72;76.01
76404;BME280;65232;48.358;2.122;2023-02-03T01:15:47;102730.59;;;7.71;76.06
76404;BME280;65232;48.358;2.122;2023-02-03T01:16:14;102736.91;;;7.69;75.81
76404;BME280;65232;48.358;2.122;2023-02-03T01:16:41;102735.13;;;7.69;76.17
76404;BME280;65232;48.358;2.122;2023-02-03T01:17:06;102736.97;;;7.67;76.05
76404;BME280;65232;48.358;2.122;2023-02-03T01:17:32;102734.44;;;7.64;76.27
76404;BME280;65232;48.358;2.122;2023-02-03T01:17:57;102728.28;;;7.62;76.36
76404;BME280;65232;48.358;2.122;2023-02-03T01:18:23;102729.28;;;7.60;76.32
76404;BME280;65232;48.358;2.122;2023-02-03T01:18:49;102725.75;;;7.59;76.22
76404;BME280;65232;48.358;2.122;2023-02-03T01:19:14;102734.66;;;7.58;76.39
76404;BME280;65232;48.358;2.122;2023-02-03T01:19:41;102737.41;;;7.57;76.48
76404;BME280;65232;48.358;2.122;2023-02-03T01:20:06;102727.53;;;7.59;76.62
76404;BME280;65232;48.358;2.122;2023-02-03T01:20:32;102737.22;;;7.61;76.26
76404;BME280;65232;48.358;2.122;2023-02-03T01:21:06;102735.34;;;7.63;76.00
76404;BME280;65232;48.358;2.122;2023-02-03T01:21:32;102735.41;;;7.62;76.31
76404;BME280;65232;48.358;2.122;2023-02-03T01:21:58;102727.47;;;7.60;76.44
76404;BME280;65232;48.358;2.122;2023-02-03T01:22:23;102723.88;;;7.61;76.62
76404;BME280;65232;48.358;2.122;2023-02-03T01:22:49;102719.69;;;7.56;76.62
76404;BME280;65232;48.358;2.122;2023-02-03T01:23:14;102722.25;;;7.57;76.72
76404;BME280;65232;48.358;2.122;2023-02-03T01:23:40;102723.94;;;7.60;76.63
76404;BME280;65232;48.358;2.122;2023-02-03T01:24:06;102717.63;;;7.62;76.51
76404;BME280;65232;48.358;2.122;2023-02-03T01:24:33;102721.28;;;7.60;76.36
76404;BME280;65232;48.358;2.122;2023-02-03T01:24:58;102724.63;;;7.65;76.38
76404;BME280;65232;48.358;2.122;2023-02-03T01:25:24;102722.97;;;7.62;76.30
76404;BME280;65232;48.358;2.122;2023-02-03T01:25:49;102715.94;;;7.60;76.23
76404;BME280;65232;48.358;2.122;2023-02-03T01:26:18;102721.28;;;7.60;76.43
76404;BME280;65232;48.358;2.122;2023-02-03T01:26:46;102725.03;;;7.56;76.67
76404;BME280;65232;48.358;2.122;2023-02-03T01:27:11;102722.34;;;7.56;76.55
76404;BME280;65232;48.358;2.122;2023-02-03T01:27:37;102722.34;;;7.56;76.60
76404;BME280;65232;48.358;2.122;2023-02-03T01:28:02;102719.69;;;7.56;76.46
76404;BME280;65232;48.358;2.122;2023-02-03T01:28:30;102720.56;;;7.56;76.42
76404;BME280;65232;48.358;2.122;2023-02-03T01:28:57;102717.94;;;7.55;76.56
76404;BME280;65232;48.358;2.122;2023-02-03T01:29:23;102720.47;;;7.58;76.88
76404;BME280;65232;48.358;2.122;2023-02-03T01:29:50;102708.94;;;7.57;76.62
76404;BME280;65232;48.358;2.122;2023-02-03T01:30:16;102714.28;;;7.57;76.63
76404;BME280;65232;48.358;2.122;2023-02-03T01:30:43;102717.03;;;7.56;76.51
76404;BME280;65232;48.358;2.122;2023-02-03T01:31:16;102714.34;;;7.56;76.54
76404;BME280;65232;48.358;2.122;2023-02-03T01:31:41;102709.97;;;7.55;76.62
76404;BME280;65232;48.358;2.122;2023-02-03T01:32:07;102712.63;;;7.55;76.50
76404;BME280;65232;48.358;2.122;2023-02-03T01:32:33;102718.88;;;7.54;76.61
76404;BME280;65232;48.358;2.122;2023-02-03T01:32:59;102717.94;;;7.55;76.29
76404;BME280;65232;48.358;2.122;2023-02-03T01:33:25;102711.91;;;7.50;76.74
76404;BME280;65232;48.358;2.122;2023-02-03T01:33:51;102708.22;;;7.54;76.73
76404;BME280;65232;48.358;2.122;2023-02-03T01:34:18;102707.41;;;7.52;76.70
76404;BME280;65232;48.358;2.122;2023-02-03T01:34:43;102708.22;;;7.54;76.76
76404;BME280;65232;48.358;2.122;2023-02-03T01:35:09;102708.34;;;7.51;77.04
76404;BME280;65232;48.358;2.122;2023-02-03T01:35:35;102707.47;;;7.50;77.11
76404;BME280;65232;48.358;2.122;2023-02-03T01:36:01;102707.56;;;7.47;77.16
76404;BME280;65232;48.358;2.122;2023-02-03T01:36:30;102711.09;;;7.48;77.03
76404;BME280;65232;48.358;2.122;2023-02-03T01:36:56;102710.25;;;7.47;77.17
76404;BME280;65232;48.358;2.122;2023-02-03T01:37:21;102704.84;;;7.49;77.07
76404;BME280;65232;48.358;2.122;2023-02-03T01:37:47;102703.13;;;7.48;77.36
76404;BME280;65232;48.358;2.122;2023-02-03T01:38:12;102705.66;;;7.51;77.05
76404;BME280;65232;48.358;2.122;2023-02-03T01:38:38;102705.63;;;7.52;77.02
76404;BME280;65232;48.358;2.122;2023-02-03T01:39:05;102707.47;;;7.50;77.16
76404;BME280;65232;48.358;2.122;2023-02-03T01:39:30;102700.44;;;7.48;77.14
76404;BME280;65232;48.358;2.122;2023-02-03T01:39:56;102701.44;;;7.45;77.28
76404;BME280;65232;48.358;2.122;2023-02-03T01:40:21;102701.63;;;7.40;77.55
76404;BME280;65232;48.358;2.122;2023-02-03T01:40:47;102699.91;;;7.39;77.41
76404;BME280;65232;48.358;2.122;2023-02-03T01:41:18;102699.97;;;7.38;77.75
76404;BME280;65232;48.358;2.122;2023-02-03T01:41:44;102693.00;;;7.34;77.78
76404;BME280;65232;48.358;2.122;2023-02-03T01:42:12;102698.34;;;7.34;77.67
76404;BME280;65232;48.358;2.122;2023-02-03T01:42:38;102692.31;;;7.29;78.04
76404;BME280;65232;48.358;2.122;2023-02-03T01:43:04;102696.75;;;7.28;78.03
76404;BME280;65232;48.358;2.122;2023-02-03T01:43:37;102695.84;;;7.29;77.91
76404;BME280;65232;48.358;2.122;2023-02-03T01:45:00;102683.75;;;7.21;77.85
76404;BME280;65232;48.358;2.122;2023-02-03T01:45:26;102691.00;;;7.17;78.42
76404;BME280;65232;48.358;2.122;2023-02-03T01:45:52;102694.41;;;7.21;77.94
76404;BME280;65232;48.358;2.122;2023-02-03T01:46:55;102686.63;;;7.15;78.18
76404;BME280;65232;48.358;2.122;2023-02-03T01:47:49;102690.38;;;7.11;78.31
76404;BME280;65232;48.358;2.122;2023-02-03T01:48:17;102698.41;;;7.09;78.14
76404;BME280;65232;48.358;2.122;2023-02-03T01:48:42;102695.91;;;7.04;78.48
76404;BME280;65232;48.358;2.122;2023-02-03T01:49:10;102696.03;;;7.01;78.38
76404;BME280;65232;48.358;2.122;2023-02-03T01:49:37;102698.75;;;7.00;78.39
76404;BME280;65232;48.358;2.122;2023-02-03T01:50:35;102695.34;;;6.96;78.80
76404;BME280;65232;48.358;2.122;2023-02-03T01:51:02;102697.19;;;6.94;78.77
76404;BME280;65232;48.358;2.122;2023-02-03T01:51:29;102690.06;;;6.95;78.67
76404;BME280;65232;48.358;2.122;2023-02-03T01:51:55;102698.00;;;6.96;78.96
76404;BME280;65232;48.358;2.122;2023-02-03T01:52:21;102697.25;;;6.93;78.66
76404;BME280;65232;48.358;2.122;2023-02-03T01:52:53;102699.81;;;6.96;78.87
76404;BME280;65232;48.358;2.122;2023-02-03T01:53:21;102696.31;;;6.94;78.74
76404;BME280;65232;48.358;2.122;2023-02-03T01:53:48;102696.38;;;6.92;78.97
76404;BME280;65232;48.358;2.122;2023-02-03T01:54:17;102691.06;;;6.92;78.59
76404;BME280;65232;48.358;2.122;2023-02-03T01:54:47;102699.16;;;6.89;78.75
76404;BME280;65232;48.358;2.122;2023-02-03T01:55:18;102695.63;;;6.89;79.13
76404;BME280;65232;48.358;2.122;2023-02-03T01:55:47;102692.25;;;6.84;79.27
76404;BME280;65232;48.358;2.122;2023-02-03T01:56:14;102690.41;;;6.86;79.21
76404;BME280;65232;48.358;2.122;2023-02-03T01:56:41;102692.09;;;6.88;79.04
76404;BME280;65232;48.358;2.122;2023-02-03T01:57:26;102695.34;;;6.96;78.72
76404;BME280;65232;48.358;2.122;2023-02-03T01:58:17;102693.72;;;6.92;78.68
76404;BME280;65232;48.358;2.122;2023-02-03T01:58:46;102684.22;;;6.85;78.92
76404;BME280;65232;48.358;2.122;2023-02-03T01:59:15;102687.84;;;6.83;78.80
76404;BME280;65232;48.358;2.122;2023-02-03T01:59:42;102683.63;;;6.77;79.14
76404;BME280;65232;48.358;2.122;2023-02-03T02:00:10;102679.25;;;6.76;79.18
76404;BME280;65232;48.358;2.122;2023-02-03T02:00:42;102682.72;;;6.78;79.37
76404;BME280;65232;48.358;2.122;2023-02-03T02:01:07;102681.84;;;6.78;79.38
76404;BME280;65232;48.358;2.122;2023-02-03T02:01:33;102679.28;;;6.75;79.04
76404;BME280;65232;48.358;2.122;2023-02-03T02:02:00;102673.97;;;6.75;79.10
76404;BME280;65232;48.358;2.122;2023-02-03T02:02:28;102668.66;;;6.75;79.26
76404;BME280;65232;48.358;2.122;2023-02-03T02:02:53;102673.22;;;6.71;79.38
76404;BME280;65232;48.358;2.122;2023-02-03T02:03:26;102667.06;;;6.69;79.48
76404;BME280;65232;48.358;2.122;2023-02-03T02:03:56;102670.72;;;6.66;79.39
76404;BME280;65232;48.358;2.122;2023-02-03T02:04:30;102665.41;;;6.66;79.41
76404;BME280;65232;48.358;2.122;2023-02-03T02:05:10;102663.69;;;6.65;79.31
76404;BME280;65232;48.358;2.122;2023-02-03T02:05:45;102673.09;;;6.74;79.16
76404;BME280;65232;48.358;2.122;2023-02-03T02:06:13;102656.31;;;6.72;79.20
76404;BME280;65232;48.358;2.122;2023-02-03T02:06:38;102660.78;;;6.71;79.15
76404;BME280;65232;48.358;2.122;2023-02-03T02:07:08;102665.22;;;6.71;79.29
76404;BME280;65232;48.358;2.122;2023-02-03T02:07:35;102663.44;;;6.71;79.09
76404;BME280;65232;48.358;2.122;2023-02-03T02:08:02;102664.31;;;6.72;79.10
76404;BME280;65232;48.358;2.122;2023-02-03T02:08:28;102664.41;;;6.69;79.31
76404;BME280;65232;48.358;2.122;2023-02-03T02:08:56;102662.81;;;6.65;79.38
76404;BME280;65232;48.358;2.122;2023-02-03T02:09:25;102670.84;;;6.63;79.49
76404;BME280;65232;48.358;2.122;2023-02-03T02:09:52;102666.38;;;6.64;79.59
76404;BME280;65232;48.358;2.122;2023-02-03T02:10:17;102671.59;;;6.67;79.81
76404;BME280;65232;48.358;2.122;2023-02-03T02:10:43;102667.00;;;6.70;79.76
76404;BME280;65232;48.358;2.122;2023-02-03T02:11:09;102673.31;;;6.68;79.90
76404;BME280;65232;48.358;2.122;2023-02-03T02:11:35;102670.66;;;6.68;79.51
76404;BME280;65232;48.358;2.122;2023-02-03T02:12:00;102671.47;;;6.70;79.57
76404;BME280;65232;48.358;2.122;2023-02-03T02:12:26;102678.53;;;6.71;79.91
76404;BME280;65232;48.358;2.122;2023-02-03T02:12:55;102678.63;;;6.68;80.07
76404;BME280;65232;48.358;2.122;2023-02-03T02:13:22;102674.19;;;6.68;80.16
76404;BME280;65232;48.358;2.122;2023-02-03T02:13:50;102671.47;;;6.70;79.92
76404;BME280;65232;48.358;2.122;2023-02-03T02:14:17;102670.50;;;6.72;79.78
76404;BME280;65232;48.358;2.122;2023-02-03T02:14:43;102678.38;;;6.76;79.78
76404;BME280;65232;48.358;2.122;2023-02-03T02:15:09;102672.13;;;6.77;79.30
76404;BME280;65232;48.358;2.122;2023-02-03T02:15:53;102669.41;;;6.78;79.25
76404;BME280;65232;48.358;2.122;2023-02-03T02:17:30;102673.88;;;6.78;79.53
76404;BME280;65232;48.358;2.122;2023-02-03T02:18:23;102681.75;;;6.81;79.20
76404;BME280;65232;48.358;2.122;2023-02-03T02:20:20;102676.28;;;6.84;79.17
76404;BME280;65232;48.358;2.122;2023-02-03T02:25:17;102660.91;;;6.92;78.83
76404;BME280;65232;48.358;2.122;2023-02-03T02:26:47;102665.41;;;6.90;79.13
76404;BME280;65232;48.358;2.122;2023-02-03T02:27:30;102666.56;;;6.83;79.69
76404;BME280;65232;48.358;2.122;2023-02-03T02:28:13;102653.97;;;6.88;79.45
76404;BME280;65232;48.358;2.122;2023-02-03T02:32:47;102650.31;;;6.90;79.21
76404;BME280;65232;48.358;2.122;2023-02-03T02:36:31;102640.59;;;6.89;78.74
76404;BME280;65232;48.358;2.122;2023-02-03T02:37:51;102641.19;;;6.97;78.18
76404;BME280;65232;48.358;2.122;2023-02-03T02:38:59;102633.06;;;7.00;77.87
76404;BME280;65232;48.358;2.122;2023-02-03T02:41:15;102630.00;;;7.11;77.86
76404;BME280;65232;48.358;2.122;2023-02-03T02:41:48;102628.28;;;7.10;77.42
76404;BME280;65232;48.358;2.122;2023-02-03T02:42:46;102629.09;;;7.12;77.37
76404;BME280;65232;48.358;2.122;2023-02-03T02:43:46;102627.25;;;7.13;77.23
76404;BME280;65232;48.358;2.122;2023-02-03T02:44:38;102625.28;;;7.18;77.23
76404;BME280;65232;48.358;2.122;2023-02-03T02:45:26;102622.63;;;7.18;76.88
76404;BME280;65232;48.358;2.122;2023-02-03T02:46:09;102623.56;;;7.17;76.86
76404;BME280;65232;48.358;2.122;2023-02-03T02:46:48;102638.66;;;7.16;76.97